createdAt,value
2017-03-31T00:00:15.523Z,21.47
2017-03-31T00:01:15.162Z,21.46
2017-03-31T00:02:15.172Z,21.46
2017-03-31T00:03:15.173Z,21.42
2017-03-31T00:04:16.595Z,21.4
2017-03-31T00:05:15.847Z,21.35
2017-03-31T00:06:15.189Z,21.38
2017-03-31T00:07:15.561Z,21.4
2017-03-31T00:08:15.527Z,21.37
2017-03-31T00:09:15.525Z,21.46
2017-03-31T00:10:15.268Z,21.42
2017-03-31T00:11:15.533Z,21.44
2017-03-31T00:12:15.541Z,21.34
2017-03-31T00:13:15.596Z,21.4
2017-03-31T00:14:15.552Z,21.49
2017-03-31T00:15:16.562Z,21.43
2017-03-31T00:16:15.621Z,21.42
2017-03-31T00:17:14.944Z,21.32
2017-03-31T00:18:15.581Z,21.34
2017-03-31T00:19:15.469Z,21.38
2017-03-31T00:20:15.592Z,21.38
2017-03-31T00:21:15.793Z,21.38
2017-03-31T00:22:15.342Z,21.34
2017-03-31T00:23:15.344Z,21.31
2017-03-31T00:24:17.103Z,21.4
2017-03-31T00:25:15.354Z,21.35
2017-03-31T00:26:16.276Z,21.35
2017-03-31T00:27:15.682Z,21.42
2017-03-31T00:28:15.735Z,21.34
2017-03-31T00:29:15.690Z,21.38
2017-03-31T00:30:15.702Z,21.37
2017-03-31T00:31:15.391Z,21.32
2017-03-31T00:32:15.396Z,21.27
2017-03-31T00:33:15.720Z,21.32
2017-03-31T00:34:15.670Z,21.4
2017-03-31T00:35:17.352Z,21.37
2017-03-31T00:36:15.687Z,21.34
2017-03-31T00:37:16.230Z,21.4
2017-03-31T00:38:15.432Z,21.34
2017-03-31T00:39:15.752Z,21.25
2017-03-31T00:40:15.709Z,21.32
2017-03-31T00:41:15.872Z,21.25
2017-03-31T00:42:15.766Z,21.28
2017-03-31T00:43:15.410Z,21.25
2017-03-31T00:44:16.386Z,21.31
2017-03-31T00:45:15.745Z,21.27
2017-03-31T00:46:15.741Z,21.25
2017-03-31T00:47:15.854Z,21.34
2017-03-31T00:48:16.776Z,21.31
2017-03-31T00:49:15.602Z,21.38
2017-03-31T00:50:15.768Z,21.29
2017-03-31T00:51:15.777Z,21.31
2017-03-31T00:52:15.515Z,21.25
2017-03-31T00:53:15.783Z,21.25
2017-03-31T00:54:15.786Z,21.35
2017-03-31T00:55:16.196Z,21.27
2017-03-31T00:56:15.800Z,21.32
2017-03-31T00:57:15.866Z,21.32
2017-03-31T00:58:15.865Z,21.28
2017-03-31T00:59:15.506Z,21.31
2017-03-31T01:00:15.200Z,21.32
2017-03-31T01:01:15.930Z,21.29
2017-03-31T01:02:15.571Z,21.32
2017-03-31T01:03:15.995Z,21.27
2017-03-31T01:04:15.541Z,21.31
2017-03-31T01:05:15.544Z,21.27
2017-03-31T01:06:16.460Z,21.28
2017-03-31T01:07:15.963Z,21.32
2017-03-31T01:08:15.969Z,21.31
2017-03-31T01:09:15.975Z,21.27
2017-03-31T01:10:16.906Z,21.32
2017-03-31T01:11:15.989Z,21.28
2017-03-31T01:12:15.896Z,21.25
2017-03-31T01:13:15.587Z,21.27
2017-03-31T01:14:15.910Z,21.34
2017-03-31T01:15:16.013Z,21.29
2017-03-31T01:16:15.974Z,21.28
2017-03-31T01:17:16.623Z,21.17
2017-03-31T01:18:15.929Z,21.29
2017-03-31T01:19:15.985Z,21.17
2017-03-31T01:20:15.994Z,21.24
2017-03-31T01:21:16.005Z,21.24
2017-03-31T01:22:15.957Z,21.31
2017-03-31T01:23:15.957Z,21.17
2017-03-31T01:24:16.563Z,21.25
2017-03-31T01:25:15.758Z,21.25
2017-03-31T01:26:15.403Z,21.21
2017-03-31T01:27:16.083Z,21.25
2017-03-31T01:28:16.638Z,21.32
2017-03-31T01:29:15.685Z,21.32
2017-03-31T01:30:16.000Z,21.31
2017-03-31T01:31:15.693Z,21.17
2017-03-31T01:32:16.022Z,21.24
2017-03-31T01:33:16.870Z,21.22
2017-03-31T01:34:16.071Z,21.27
2017-03-31T01:35:16.087Z,21.25
2017-03-31T01:36:15.723Z,21.17
2017-03-31T01:37:16.090Z,21.25
2017-03-31T01:38:16.095Z,21.22
2017-03-31T01:39:16.807Z,21.16
2017-03-31T01:40:16.057Z,21.24
2017-03-31T01:41:16.181Z,21.14
2017-03-31T01:42:16.074Z,21.19
2017-03-31T01:43:16.093Z,21.25
2017-03-31T01:44:16.132Z,21.25
2017-03-31T01:45:16.138Z,21.24
2017-03-31T01:46:15.933Z,21.24
2017-03-31T01:47:16.098Z,21.19
2017-03-31T01:48:16.449Z,21.17
2017-03-31T01:49:15.799Z,21.19
2017-03-31T01:50:16.569Z,21.19
2017-03-31T01:51:15.863Z,21.25
2017-03-31T01:52:16.231Z,21.21
2017-03-31T01:53:16.185Z,21.13
2017-03-31T01:54:15.879Z,21.24
2017-03-31T01:55:16.195Z,21.22
2017-03-31T01:56:16.258Z,21.25
2017-03-31T01:57:15.896Z,21.28
2017-03-31T01:58:16.617Z,21.22
2017-03-31T01:59:16.223Z,21.25
2017-03-31T02:00:16.165Z,21.25
2017-03-31T02:01:16.737Z,21.21
2017-03-31T02:02:16.191Z,21.24
2017-03-31T02:03:16.194Z,21.27
2017-03-31T02:04:16.251Z,21.12
2017-03-31T02:05:17.279Z,21.14
2017-03-31T02:06:15.950Z,21.25
2017-03-31T02:07:16.219Z,21.22
2017-03-31T02:08:16.276Z,21.24
2017-03-31T02:09:16.278Z,21.24
2017-03-31T02:10:16.377Z,21.21
2017-03-31T02:11:16.341Z,21.17
2017-03-31T02:12:17.849Z,21.19
2017-03-31T02:13:15.941Z,21.16
2017-03-31T02:14:16.305Z,21.16
2017-03-31T02:15:16.866Z,21.16
2017-03-31T02:16:17.246Z,21.17
2017-03-31T02:17:16.328Z,21.17
2017-03-31T02:18:16.018Z,21.19
2017-03-31T02:19:16.288Z,21.13
2017-03-31T02:20:16.081Z,21.17
2017-03-31T02:21:16.402Z,21.17
2017-03-31T02:22:17.307Z,21.14
2017-03-31T02:23:16.562Z,21.13
2017-03-31T02:24:16.002Z,21.19
2017-03-31T02:25:16.323Z,21.13
2017-03-31T02:26:16.066Z,21.12
2017-03-31T02:27:17.310Z,21.1
2017-03-31T02:28:16.439Z,21.09
2017-03-31T02:29:16.401Z,21.12
2017-03-31T02:30:16.405Z,21.12
2017-03-31T02:31:16.359Z,21.17
2017-03-31T02:32:16.367Z,21.1
2017-03-31T02:33:16.064Z,21.06
2017-03-31T02:34:16.310Z,21.09
2017-03-31T02:35:16.385Z,21.04
2017-03-31T02:36:16.443Z,21.1
2017-03-31T02:37:16.451Z,21.12
2017-03-31T02:38:16.086Z,21.1
2017-03-31T02:39:16.535Z,21.1
2017-03-31T02:40:16.148Z,21.07
2017-03-31T02:41:16.419Z,21.07
2017-03-31T02:42:16.473Z,21.09
2017-03-31T02:43:16.476Z,21.09
2017-03-31T02:44:16.530Z,21.04
2017-03-31T02:45:16.588Z,21.07
2017-03-31T02:46:16.498Z,21.06
2017-03-31T02:47:16.451Z,21.07
2017-03-31T02:48:16.556Z,21.1
2017-03-31T02:49:17.661Z,21.03
2017-03-31T02:50:16.519Z,21.09
2017-03-31T02:51:16.573Z,21.06
2017-03-31T02:52:16.168Z,21.01
2017-03-31T02:53:16.588Z,21.06
2017-03-31T02:54:16.278Z,21.14
2017-03-31T02:55:16.185Z,21.04
2017-03-31T02:56:16.345Z,21.07
2017-03-31T02:57:16.511Z,21.06
2017-03-31T02:58:16.204Z,21.07
2017-03-31T02:59:16.523Z,21.04
2017-03-31T03:00:17.635Z,21.01
2017-03-31T03:01:16.534Z,21.06
2017-03-31T03:02:16.537Z,21.07
2017-03-31T03:03:16.843Z,21.07
2017-03-31T03:04:16.549Z,21.07
2017-03-31T03:05:16.610Z,21.01
2017-03-31T03:06:16.566Z,21.07
2017-03-31T03:07:16.618Z,21.07
2017-03-31T03:08:16.572Z,21.09
2017-03-31T03:09:16.577Z,21.03
2017-03-31T03:10:16.372Z,20.99
2017-03-31T03:11:17.592Z,21.06
2017-03-31T03:12:16.593Z,21.06
2017-03-31T03:13:16.342Z,21.07
2017-03-31T03:14:16.607Z,21.07
2017-03-31T03:15:16.918Z,21.09
2017-03-31T03:16:16.620Z,21.09
2017-03-31T03:17:16.676Z,21.09
2017-03-31T03:18:16.679Z,21.09
2017-03-31T03:19:16.736Z,21.07
2017-03-31T03:20:16.629Z,21.04
2017-03-31T03:21:16.699Z,21.06
2017-03-31T03:22:17.245Z,21.04
2017-03-31T03:23:16.758Z,21.04
2017-03-31T03:24:16.715Z,21.12
2017-03-31T03:25:16.723Z,21.06
2017-03-31T03:26:16.678Z,21.1
2017-03-31T03:27:16.783Z,21.01
2017-03-31T03:28:16.739Z,21.13
2017-03-31T03:29:16.379Z,21.1
2017-03-31T03:30:16.701Z,21.09
2017-03-31T03:31:18.381Z,21.13
2017-03-31T03:32:16.852Z,21.06
2017-03-31T03:33:17.570Z,21.07
2017-03-31T03:34:16.773Z,21.06
2017-03-31T03:35:16.741Z,21.07
2017-03-31T03:36:16.740Z,21.1
2017-03-31T03:37:16.528Z,21.04
2017-03-31T03:38:16.174Z,21.06
2017-03-31T03:39:16.756Z,21.09
2017-03-31T03:40:17.612Z,21.1
2017-03-31T03:41:16.813Z,21.13
2017-03-31T03:42:18.263Z,21.04
2017-03-31T03:43:16.873Z,21.12
2017-03-31T03:44:17.531Z,21.03
2017-03-31T03:45:17.084Z,21.07
2017-03-31T03:46:16.829Z,21.04
2017-03-31T03:47:16.800Z,21.06
2017-03-31T03:48:17.068Z,21.06
2017-03-31T03:49:16.863Z,21.13
2017-03-31T03:50:16.601Z,21.14
2017-03-31T03:51:16.510Z,21.03
2017-03-31T03:52:16.826Z,21.07
2017-03-31T03:53:18.257Z,21.1
2017-03-31T03:54:16.937Z,21.07
2017-03-31T03:55:17.399Z,21.09
2017-03-31T03:56:16.595Z,21.07
2017-03-31T03:57:16.939Z,21.1
2017-03-31T03:58:16.597Z,21.09
2017-03-31T03:59:16.919Z,21.14
2017-03-31T04:00:16.560Z,21.07
2017-03-31T04:01:16.928Z,21.09
2017-03-31T04:02:16.883Z,21.09
2017-03-31T04:03:38.519Z,21.04
2017-03-31T04:04:16.634Z,21.09
2017-03-31T04:05:16.901Z,21.06
2017-03-31T04:06:17.658Z,21.16
2017-03-31T04:07:16.920Z,21.04
2017-03-31T04:08:16.919Z,21.1
2017-03-31T04:09:16.661Z,21.06
2017-03-31T04:10:16.930Z,21.07
2017-03-31T04:11:17.038Z,21.09
2017-03-31T04:12:17.041Z,21.07
2017-03-31T04:13:16.995Z,21.04
2017-03-31T04:14:17.004Z,21.04
2017-03-31T04:15:18.586Z,20.98
2017-03-31T04:16:17.016Z,21.01
2017-03-31T04:17:17.722Z,21.03
2017-03-31T04:18:16.974Z,20.99
2017-03-31T04:19:17.030Z,21.04
2017-03-31T04:20:16.993Z,21.1
2017-03-31T04:21:16.729Z,21.09
2017-03-31T04:22:16.742Z,21.01
2017-03-31T04:23:17.058Z,21.06
2017-03-31T04:24:17.011Z,21.09
2017-03-31T04:25:17.018Z,21.09
2017-03-31T04:26:17.027Z,21.04
2017-03-31T04:27:16.766Z,21.13
2017-03-31T04:28:17.823Z,21.04
2017-03-31T04:29:17.041Z,21.06
2017-03-31T04:30:16.771Z,21.03
2017-03-31T04:31:17.041Z,21.1
2017-03-31T04:32:17.058Z,21.04
2017-03-31T04:33:17.614Z,21.01
2017-03-31T04:34:16.755Z,21.06
2017-03-31T04:35:16.455Z,20.99
2017-03-31T04:36:17.181Z,21.09
2017-03-31T04:37:17.087Z,20.99
2017-03-31T04:38:17.198Z,21.04
2017-03-31T04:39:18.049Z,21.03
2017-03-31T04:40:17.105Z,21.01
2017-03-31T04:41:16.847Z,21.03
2017-03-31T04:42:17.218Z,21.04
2017-03-31T04:43:17.124Z,21.01
2017-03-31T04:44:17.178Z,21.06
2017-03-31T04:45:17.132Z,21.06
2017-03-31T04:46:17.140Z,21.14
2017-03-31T04:47:16.837Z,21.03
2017-03-31T04:48:16.890Z,21.09
2017-03-31T04:49:17.159Z,21.06
2017-03-31T04:50:18.018Z,21.12
2017-03-31T04:51:17.704Z,21.06
2017-03-31T04:52:16.860Z,21.03
2017-03-31T04:53:16.605Z,21.1
2017-03-31T04:54:16.925Z,21.07
2017-03-31T04:55:17.190Z,21.06
2017-03-31T04:56:17.253Z,21.01
2017-03-31T04:57:17.255Z,21.06
2017-03-31T04:58:16.900Z,21.07
2017-03-31T04:59:16.951Z,21.09
2017-03-31T05:00:16.910Z,21.07
2017-03-31T05:01:18.331Z,21.1
2017-03-31T05:02:16.973Z,21.04
2017-03-31T05:03:30.843Z,21.03
2017-03-31T05:04:17.643Z,21.1
2017-03-31T05:05:17.300Z,21.07
2017-03-31T05:06:16.992Z,21.06
2017-03-31T05:07:17.263Z,21.1
2017-03-31T05:08:17.265Z,21.06
2017-03-31T05:09:17.362Z,21.09
2017-03-31T05:10:17.277Z,21.01
2017-03-31T05:11:17.338Z,21.06
2017-03-31T05:12:18.409Z,21.07
2017-03-31T05:13:16.983Z,21.12
2017-03-31T05:14:17.350Z,21.06
2017-03-31T05:15:16.684Z,21.12
2017-03-31T05:16:17.313Z,21.04
2017-03-31T05:17:17.320Z,21.03
2017-03-31T05:18:17.374Z,21.09
2017-03-31T05:19:17.432Z,21.06
2017-03-31T05:20:17.434Z,21.1
2017-03-31T05:21:17.345Z,21.1
2017-03-31T05:22:17.349Z,21.17
2017-03-31T05:23:18.406Z,21.13
2017-03-31T05:24:17.363Z,21.1
2017-03-31T05:25:17.056Z,21.1
2017-03-31T05:26:17.418Z,21.19
2017-03-31T05:27:17.377Z,21.25
2017-03-31T05:28:17.536Z,21.24
2017-03-31T05:29:17.127Z,21.19
2017-03-31T05:30:17.448Z,21.21
2017-03-31T05:31:17.500Z,21.13
2017-03-31T05:32:19.133Z,21.16
2017-03-31T05:33:30.145Z,21.17
2017-03-31T05:34:18.319Z,21.29
2017-03-31T05:35:17.212Z,21.27
2017-03-31T05:36:17.431Z,21.28
2017-03-31T05:37:17.537Z,21.28
2017-03-31T05:38:17.129Z,21.27
2017-03-31T05:39:17.496Z,21.32
2017-03-31T05:40:17.501Z,21.28
2017-03-31T05:41:17.202Z,21.27
2017-03-31T05:42:17.151Z,21.28
2017-03-31T05:43:19.040Z,21.42
2017-03-31T05:44:17.526Z,21.35
2017-03-31T05:45:18.463Z,21.35
2017-03-31T05:46:17.275Z,21.35
2017-03-31T05:47:17.545Z,21.37
2017-03-31T05:48:17.499Z,21.42
2017-03-31T05:49:17.604Z,21.38
2017-03-31T05:50:17.558Z,21.42
2017-03-31T05:51:17.565Z,21.43
2017-03-31T05:52:17.718Z,21.46
2017-03-31T05:53:17.577Z,21.42
2017-03-31T05:54:17.324Z,21.38
2017-03-31T05:55:17.589Z,21.46
2017-03-31T05:56:18.417Z,21.5
2017-03-31T05:57:17.556Z,21.47
2017-03-31T05:58:17.558Z,21.47
2017-03-31T05:59:17.561Z,21.54
2017-03-31T06:00:17.622Z,21.56
2017-03-31T06:01:17.627Z,21.52
2017-03-31T06:02:17.621Z,21.58
2017-03-31T06:03:30.513Z,21.54
2017-03-31T06:04:17.643Z,21.54
2017-03-31T06:05:17.648Z,21.67
2017-03-31T06:06:17.660Z,21.62
2017-03-31T06:07:18.223Z,21.64
2017-03-31T06:08:17.617Z,21.65
2017-03-31T06:09:17.623Z,21.65
2017-03-31T06:10:17.315Z,21.62
2017-03-31T06:11:17.733Z,21.77
2017-03-31T06:12:17.379Z,21.75
2017-03-31T06:13:17.643Z,21.67
2017-03-31T06:14:17.653Z,21.74
2017-03-31T06:15:17.709Z,21.8
2017-03-31T06:16:17.715Z,21.86
2017-03-31T06:17:17.773Z,21.8
2017-03-31T06:18:18.723Z,21.86
2017-03-31T06:19:17.681Z,21.83
2017-03-31T06:20:17.739Z,21.94
2017-03-31T06:21:17.383Z,21.86
2017-03-31T06:22:17.752Z,21.91
2017-03-31T06:23:17.760Z,21.91
2017-03-31T06:24:17.453Z,22.05
2017-03-31T06:25:17.972Z,22.05
2017-03-31T06:26:17.773Z,21.99
2017-03-31T06:27:17.423Z,22.05
2017-03-31T06:28:17.787Z,22.06
2017-03-31T06:29:18.566Z,22.07
2017-03-31T06:30:17.750Z,22.14
2017-03-31T06:31:17.443Z,22.12
2017-03-31T06:32:17.861Z,22.12
2017-03-31T06:33:17.815Z,22.09
2017-03-31T06:34:17.826Z,22.14
2017-03-31T06:35:17.830Z,22.07
2017-03-31T06:36:17.574Z,22.03
2017-03-31T06:37:17.848Z,22.14
2017-03-31T06:38:17.810Z,22.18
2017-03-31T06:39:17.806Z,22.15
2017-03-31T06:40:19.017Z,22.15
2017-03-31T06:41:17.819Z,22.24
2017-03-31T06:42:17.876Z,22.17
2017-03-31T06:43:17.879Z,22.17
2017-03-31T06:44:17.838Z,22.18
2017-03-31T06:45:17.860Z,22.21
2017-03-31T06:46:17.952Z,22.21
2017-03-31T06:47:17.855Z,22.28
2017-03-31T06:48:17.861Z,22.3
2017-03-31T06:49:17.868Z,22.35
2017-03-31T06:50:17.562Z,22.24
2017-03-31T06:51:18.930Z,22.22
2017-03-31T06:52:17.965Z,22.18
2017-03-31T06:53:17.893Z,22.27
2017-03-31T06:54:17.899Z,22.18
2017-03-31T06:55:17.905Z,22.15
2017-03-31T06:56:17.967Z,22.22
2017-03-31T06:57:17.919Z,22.2
2017-03-31T06:58:18.124Z,22.21
2017-03-31T06:59:17.773Z,22.21
2017-03-31T07:00:17.986Z,22.17
2017-03-31T07:01:17.632Z,22.18
2017-03-31T07:02:18.662Z,22.21
2017-03-31T07:03:30.534Z,22.22
2017-03-31T07:04:18.013Z,22.17
2017-03-31T07:05:17.704Z,22.21
2017-03-31T07:06:18.077Z,22.2
2017-03-31T07:07:17.665Z,22.2
2017-03-31T07:08:18.038Z,22.17
2017-03-31T07:09:18.142Z,22.22
2017-03-31T07:10:18.050Z,22.22
2017-03-31T07:11:18.004Z,22.21
2017-03-31T07:12:18.062Z,22.22
2017-03-31T07:13:18.670Z,22.22
2017-03-31T07:14:18.580Z,22.17
2017-03-31T07:15:18.137Z,22.28
2017-03-31T07:16:18.039Z,22.22
2017-03-31T07:17:17.780Z,22.18
2017-03-31T07:18:18.099Z,22.25
2017-03-31T07:19:18.063Z,22.22
2017-03-31T07:20:18.064Z,22.18
2017-03-31T07:21:18.078Z,22.21
2017-03-31T07:22:19.747Z,22.18
2017-03-31T07:23:18.132Z,22.21
2017-03-31T07:24:18.873Z,22.22
2017-03-31T07:25:17.788Z,22.22
2017-03-31T07:26:18.151Z,22.21
2017-03-31T07:27:18.152Z,22.27
2017-03-31T07:28:17.797Z,22.21
2017-03-31T07:29:18.166Z,22.24
2017-03-31T07:30:18.175Z,22.21
2017-03-31T07:31:18.234Z,22.17
2017-03-31T07:32:18.185Z,22.22
2017-03-31T07:33:18.218Z,22.27
2017-03-31T07:34:17.884Z,22.25
2017-03-31T07:35:19.239Z,22.28
2017-03-31T07:36:17.900Z,22.24
2017-03-31T07:37:18.217Z,22.22
2017-03-31T07:38:17.912Z,22.25
2017-03-31T07:39:18.231Z,22.22
2017-03-31T07:40:18.188Z,22.24
2017-03-31T07:41:18.244Z,22.2
2017-03-31T07:42:18.193Z,22.2
2017-03-31T07:43:18.208Z,22.24
2017-03-31T07:44:18.261Z,22.25
2017-03-31T07:45:18.216Z,22.22
2017-03-31T07:46:19.250Z,22.2
2017-03-31T07:47:18.337Z,22.22
2017-03-31T07:48:18.428Z,22.27
2017-03-31T07:49:18.297Z,22.22
2017-03-31T07:50:17.938Z,22.22
2017-03-31T07:51:18.360Z,22.24
2017-03-31T07:52:18.313Z,22.25
2017-03-31T07:53:18.306Z,22.18
2017-03-31T07:54:18.015Z,22.22
2017-03-31T07:55:18.334Z,22.27
2017-03-31T07:56:17.977Z,22.3
2017-03-31T07:57:19.271Z,22.27
2017-03-31T07:58:18.303Z,22.27
2017-03-31T07:59:18.406Z,22.33
2017-03-31T08:00:18.365Z,22.31
2017-03-31T08:01:18.326Z,22.33
2017-03-31T08:02:18.015Z,22.39
2017-03-31T08:03:31.022Z,22.37
2017-03-31T08:04:18.989Z,22.39
2017-03-31T08:05:18.344Z,22.4
2017-03-31T08:06:18.240Z,22.42
2017-03-31T08:07:18.358Z,22.35
2017-03-31T08:08:18.467Z,22.37
2017-03-31T08:09:18.370Z,22.42
2017-03-31T08:10:18.382Z,22.47
2017-03-31T08:11:18.432Z,22.51
2017-03-31T08:12:18.439Z,22.47
2017-03-31T08:13:18.087Z,22.65
2017-03-31T08:14:18.457Z,22.72
2017-03-31T08:15:18.830Z,22.68
2017-03-31T08:16:18.471Z,22.67
2017-03-31T08:17:18.423Z,22.7
2017-03-31T08:18:18.531Z,22.65
2017-03-31T08:19:18.173Z,22.73
2017-03-31T08:20:18.494Z,22.77
2017-03-31T08:21:18.191Z,22.76
2017-03-31T08:22:18.456Z,22.83
2017-03-31T08:23:18.561Z,22.88
2017-03-31T08:24:18.255Z,23.05
2017-03-31T08:25:18.214Z,23.1
2017-03-31T08:26:19.730Z,23.23
2017-03-31T08:27:18.536Z,23.47
2017-03-31T08:28:18.743Z,23.95
2017-03-31T08:29:18.551Z,25.13
2017-03-31T08:30:18.515Z,25.82
2017-03-31T08:31:18.618Z,26.18
2017-03-31T08:32:18.210Z,26.87
2017-03-31T08:33:18.529Z,27.5
2017-03-31T08:34:18.585Z,27.97
2017-03-31T08:35:18.544Z,28.14
2017-03-31T08:36:17.975Z,27.39
2017-03-31T08:37:19.309Z,27.12
2017-03-31T08:38:18.564Z,27.07
2017-03-31T08:39:18.722Z,26.88
2017-03-31T08:40:18.629Z,26.73
2017-03-31T08:41:18.698Z,26.47
2017-03-31T08:42:18.648Z,25.87
2017-03-31T08:43:18.592Z,26.13
2017-03-31T08:44:18.608Z,26.77
2017-03-31T08:45:18.733Z,27.51
2017-03-31T08:46:18.625Z,27.29
2017-03-31T08:47:18.684Z,26.99
2017-03-31T08:48:19.445Z,26.89
2017-03-31T08:49:18.390Z,26.72
2017-03-31T08:50:18.858Z,26.72
2017-03-31T08:51:18.406Z,26.84
2017-03-31T08:52:18.678Z,26.7
2017-03-31T08:53:18.685Z,27.03
2017-03-31T08:54:18.065Z,27.24
2017-03-31T08:55:18.436Z,27.32
2017-03-31T08:56:18.443Z,27.28
2017-03-31T08:57:18.710Z,27.17
2017-03-31T08:58:18.766Z,27.43
2017-03-31T08:59:19.825Z,27.28
2017-03-31T09:00:18.521Z,26.73
2017-03-31T09:01:18.926Z,26.3
2017-03-31T09:02:18.845Z,25.88
2017-03-31T09:03:18.762Z,25.42
2017-03-31T09:04:18.809Z,24.83
2017-03-31T09:05:18.507Z,24.47
2017-03-31T09:06:18.775Z,24.18
2017-03-31T09:07:18.781Z,23.95
2017-03-31T09:08:18.480Z,23.84
2017-03-31T09:09:19.182Z,23.87
2017-03-31T09:10:19.889Z,23.65
2017-03-31T09:11:18.813Z,23.76
2017-03-31T09:12:19.267Z,23.57
2017-03-31T09:13:18.925Z,23.68
2017-03-31T09:14:18.769Z,23.57
2017-03-31T09:15:18.891Z,23.58
2017-03-31T09:16:18.894Z,23.51
2017-03-31T09:17:18.955Z,23.38
2017-03-31T09:18:18.955Z,23.46
2017-03-31T09:19:19.767Z,23.42
2017-03-31T09:20:18.608Z,23.35
2017-03-31T09:21:18.931Z,23.43
2017-03-31T09:22:18.624Z,23.36
2017-03-31T09:23:19.899Z,23.4
2017-03-31T09:24:18.899Z,23.27
2017-03-31T09:25:19.155Z,23.27
2017-03-31T09:26:18.965Z,23.31
2017-03-31T09:27:18.658Z,23.31
2017-03-31T09:28:18.621Z,23.31
2017-03-31T09:29:18.935Z,23.32
2017-03-31T09:30:18.993Z,23.35
2017-03-31T09:31:18.982Z,23.33
2017-03-31T09:32:19.055Z,23.39
2017-03-31T09:33:18.963Z,23.39
2017-03-31T09:34:19.971Z,23.38
2017-03-31T09:35:19.033Z,23.38
2017-03-31T09:36:19.320Z,23.38
2017-03-31T09:37:19.091Z,23.33
2017-03-31T09:38:18.996Z,23.31
2017-03-31T09:39:19.006Z,23.38
2017-03-31T09:40:18.801Z,23.32
2017-03-31T09:41:19.065Z,23.22
2017-03-31T09:42:19.024Z,23.31
2017-03-31T09:43:19.030Z,23.32
2017-03-31T09:44:19.087Z,23.31
2017-03-31T09:45:20.247Z,23.32
2017-03-31T09:46:18.792Z,23.32
2017-03-31T09:47:19.556Z,23.35
2017-03-31T09:48:19.573Z,23.25
2017-03-31T09:49:19.071Z,23.38
2017-03-31T09:50:19.130Z,23.32
2017-03-31T09:51:19.187Z,23.32
2017-03-31T09:52:19.143Z,23.33
2017-03-31T09:53:19.103Z,23.23
2017-03-31T09:54:18.794Z,23.28
2017-03-31T09:55:19.165Z,23.33
2017-03-31T09:56:20.302Z,23.28
2017-03-31T09:57:19.130Z,23.32
2017-03-31T09:58:19.738Z,23.33
2017-03-31T09:59:19.194Z,23.31
2017-03-31T10:00:19.149Z,23.31
2017-03-31T10:01:19.206Z,23.23
2017-03-31T10:02:19.001Z,23.27
2017-03-31T10:04:18.918Z,23.16
2017-03-31T10:05:19.184Z,23.23
2017-03-31T10:06:19.193Z,23.17
2017-03-31T10:07:20.174Z,23.27
2017-03-31T10:08:18.989Z,23.15
2017-03-31T10:09:20.110Z,23.2
2017-03-31T10:10:19.215Z,23.13
2017-03-31T10:11:19.012Z,23.16
2017-03-31T10:12:19.284Z,23.22
2017-03-31T10:13:19.237Z,23.19
2017-03-31T10:14:19.246Z,23.15
2017-03-31T10:15:19.250Z,23.19
2017-03-31T10:16:19.310Z,23.27
2017-03-31T10:17:19.366Z,23.17
2017-03-31T10:18:19.279Z,23.19
2017-03-31T10:19:19.016Z,23.28
2017-03-31T10:20:20.340Z,23.23
2017-03-31T10:21:19.379Z,23.33
2017-03-31T10:22:19.350Z,23.22
2017-03-31T10:23:19.051Z,23.33
2017-03-31T10:24:19.367Z,23.32
2017-03-31T10:25:19.059Z,23.36
2017-03-31T10:26:18.704Z,23.32
2017-03-31T10:27:19.873Z,23.33
2017-03-31T10:28:19.398Z,23.36
2017-03-31T10:29:19.403Z,23.38
2017-03-31T10:30:19.355Z,23.36
2017-03-31T10:31:19.106Z,23.36
2017-03-31T10:32:19.371Z,23.28
2017-03-31T10:33:21.026Z,23.33
2017-03-31T10:34:19.432Z,23.33
2017-03-31T10:35:19.092Z,23.33
2017-03-31T10:36:19.087Z,23.36
2017-03-31T10:37:19.508Z,23.35
2017-03-31T10:38:20.116Z,23.23
2017-03-31T10:39:19.421Z,23.35
2017-03-31T10:40:19.474Z,23.32
2017-03-31T10:41:19.118Z,23.33
2017-03-31T10:42:19.438Z,23.38
2017-03-31T10:43:19.133Z,23.36
2017-03-31T10:44:19.525Z,23.35
2017-03-31T10:45:19.249Z,23.35
2017-03-31T10:46:19.158Z,23.28
2017-03-31T10:47:19.675Z,23.19
2017-03-31T10:48:19.167Z,23.25
2017-03-31T10:49:20.096Z,23.32
2017-03-31T10:50:19.181Z,23.32
2017-03-31T10:51:19.516Z,23.23
2017-03-31T10:52:19.567Z,23.31
2017-03-31T10:53:19.667Z,23.19
2017-03-31T10:54:19.266Z,23.2
2017-03-31T10:55:19.626Z,23.22
2017-03-31T10:56:19.585Z,23.27
2017-03-31T10:57:19.296Z,23.15
2017-03-31T10:58:18.922Z,23.12
2017-03-31T10:59:19.244Z,23.13
2017-03-31T11:00:20.174Z,23.13
2017-03-31T11:01:19.576Z,23.07
2017-03-31T11:02:19.930Z,23.02
2017-03-31T11:03:21.835Z,23.02
2017-03-31T11:04:19.327Z,23.07
2017-03-31T11:05:19.649Z,23.01
2017-03-31T11:06:19.293Z,23.04
2017-03-31T11:07:19.666Z,23.02
2017-03-31T11:08:19.767Z,23
2017-03-31T11:09:19.685Z,23
2017-03-31T11:10:19.684Z,23.04
2017-03-31T11:11:19.374Z,23.01
2017-03-31T11:12:19.384Z,23.02
2017-03-31T11:13:20.351Z,23.04
2017-03-31T11:14:19.717Z,22.98
2017-03-31T11:15:19.670Z,23.01
2017-03-31T11:16:19.724Z,23.01
2017-03-31T11:17:19.718Z,23.09
2017-03-31T11:18:19.689Z,23.01
2017-03-31T11:19:19.746Z,23.02
2017-03-31T11:20:19.707Z,23.04
2017-03-31T11:21:19.711Z,23.04
2017-03-31T11:22:20.792Z,23.04
2017-03-31T11:23:19.461Z,23.04
2017-03-31T11:24:20.579Z,23.02
2017-03-31T11:25:20.090Z,23.02
2017-03-31T11:26:19.119Z,22.98
2017-03-31T11:27:19.754Z,22.97
2017-03-31T11:28:19.860Z,22.94
2017-03-31T11:29:19.767Z,22.88
2017-03-31T11:30:19.846Z,22.92
2017-03-31T11:31:19.470Z,22.94
2017-03-31T11:32:19.785Z,22.98
2017-03-31T11:33:20.867Z,22.91
2017-03-31T11:34:19.537Z,23.02
2017-03-31T11:35:20.711Z,22.98
2017-03-31T11:36:20.162Z,22.95
2017-03-31T11:37:19.869Z,22.88
2017-03-31T11:38:20.679Z,22.86
2017-03-31T11:39:19.933Z,23.01
2017-03-31T11:40:19.531Z,22.94
2017-03-31T11:41:19.536Z,22.98
2017-03-31T11:42:19.905Z,22.98
2017-03-31T11:43:19.860Z,22.95
2017-03-31T11:44:20.421Z,22.95
2017-03-31T11:45:20.326Z,22.94
2017-03-31T11:46:19.570Z,22.88
2017-03-31T11:47:19.638Z,22.94
2017-03-31T11:48:19.946Z,22.92
2017-03-31T11:49:19.954Z,22.85
2017-03-31T11:50:19.607Z,22.83
2017-03-31T11:51:20.019Z,22.97
2017-03-31T11:52:19.929Z,22.94
2017-03-31T11:53:19.931Z,22.95
2017-03-31T11:54:20.037Z,22.95
2017-03-31T11:55:20.509Z,22.8
2017-03-31T11:56:20.050Z,22.86
2017-03-31T11:57:19.382Z,22.88
2017-03-31T11:58:20.014Z,22.92
2017-03-31T11:59:19.971Z,22.86
2017-03-31T12:00:20.029Z,22.91
2017-03-31T12:01:19.672Z,22.88
2017-03-31T12:02:19.999Z,22.94
2017-03-31T12:03:19.695Z,22.9
2017-03-31T12:04:19.388Z,22.92
2017-03-31T12:05:20.061Z,22.94
2017-03-31T12:06:21.070Z,22.9
2017-03-31T12:07:20.564Z,22.9
2017-03-31T12:08:20.192Z,22.91
2017-03-31T12:09:20.037Z,22.83
2017-03-31T12:10:19.734Z,22.86
2017-03-31T12:11:20.153Z,22.79
2017-03-31T12:12:19.747Z,22.77
2017-03-31T12:13:19.805Z,22.79
2017-03-31T12:14:20.183Z,22.79
2017-03-31T12:15:20.401Z,22.8
2017-03-31T12:16:19.827Z,22.83
2017-03-31T12:17:21.453Z,22.82
2017-03-31T12:18:20.103Z,22.8
2017-03-31T12:19:20.294Z,22.77
2017-03-31T12:20:20.114Z,22.72
2017-03-31T12:21:20.178Z,22.73
2017-03-31T12:22:20.228Z,22.79
2017-03-31T12:23:20.237Z,22.8
2017-03-31T12:24:20.144Z,22.79
2017-03-31T12:25:20.147Z,22.82
2017-03-31T12:26:20.205Z,22.77
2017-03-31T12:27:20.213Z,22.76
2017-03-31T12:28:21.792Z,22.76
2017-03-31T12:29:19.863Z,22.79
2017-03-31T12:30:21.083Z,22.77
2017-03-31T12:31:19.925Z,22.77
2017-03-31T12:32:20.196Z,22.77
2017-03-31T12:33:20.207Z,22.73
2017-03-31T12:34:19.984Z,22.67
2017-03-31T12:35:20.215Z,22.68
2017-03-31T12:36:19.909Z,22.75
2017-03-31T12:37:20.263Z,22.75
2017-03-31T12:38:19.975Z,22.75
2017-03-31T12:39:20.292Z,22.82
2017-03-31T12:40:20.251Z,22.8
2017-03-31T12:41:21.518Z,22.65
2017-03-31T12:42:19.951Z,22.73
2017-03-31T12:43:20.120Z,22.7
2017-03-31T12:44:20.071Z,22.65
2017-03-31T12:45:20.069Z,22.7
2017-03-31T12:46:20.344Z,22.61
2017-03-31T12:47:20.347Z,22.67
2017-03-31T12:48:20.309Z,22.7
2017-03-31T12:49:19.999Z,22.68
2017-03-31T12:50:20.818Z,22.67
2017-03-31T12:51:20.425Z,22.64
2017-03-31T12:52:20.380Z,22.72
2017-03-31T12:53:20.074Z,22.64
2017-03-31T12:54:21.448Z,22.61
2017-03-31T12:55:20.352Z,22.61